createdAt,value
2017-07-30T00:00:22.467Z,0
2017-07-30T00:01:24.976Z,0
2017-07-30T00:02:27.418Z,0
2017-07-30T00:03:29.865Z,0
2017-07-30T00:04:32.305Z,0
2017-07-30T00:05:34.749Z,0
2017-07-30T00:06:37.286Z,0
2017-07-30T00:07:39.736Z,0
2017-07-30T00:08:42.168Z,0
2017-07-30T00:09:44.626Z,0
2017-07-30T00:10:47.098Z,0
2017-07-30T00:11:49.609Z,0
2017-07-30T00:12:52.070Z,0
2017-07-30T00:13:54.512Z,0
2017-07-30T00:14:56.963Z,0
2017-07-30T00:15:59.420Z,0
2017-07-30T00:17:01.940Z,0
2017-07-30T00:18:04.372Z,0
2017-07-30T00:19:06.814Z,0
2017-07-30T00:20:09.261Z,0
2017-07-30T00:21:11.705Z,0
2017-07-30T00:22:14.223Z,0
2017-07-30T00:23:16.672Z,0
2017-07-30T00:24:19.111Z,0
2017-07-30T00:25:21.567Z,0
2017-07-30T00:26:24.016Z,0
2017-07-30T00:27:26.527Z,0
2017-07-30T00:28:28.965Z,0
2017-07-30T00:29:31.437Z,0
2017-07-30T00:30:33.885Z,0
2017-07-30T00:31:36.313Z,0
2017-07-30T00:32:38.833Z,0
2017-07-30T00:33:41.309Z,0
2017-07-30T00:34:43.829Z,0
2017-07-30T00:35:46.315Z,0
2017-07-30T00:36:48.758Z,0
2017-07-30T00:37:51.276Z,0
2017-07-30T00:38:53.702Z,0
2017-07-30T00:39:56.147Z,0
2017-07-30T00:40:58.590Z,0
2017-07-30T00:42:01.047Z,0
2017-07-30T00:43:03.563Z,0
2017-07-30T00:44:05.995Z,0
2017-07-30T00:45:08.442Z,0
2017-07-30T00:46:10.892Z,0
2017-07-30T00:47:13.366Z,0
2017-07-30T00:48:15.883Z,0
2017-07-30T00:49:18.329Z,0
2017-07-30T00:50:20.776Z,0
2017-07-30T00:51:23.237Z,0
2017-07-30T00:52:25.677Z,0
2017-07-30T00:53:28.204Z,0
2017-07-30T00:54:30.669Z,0
2017-07-30T00:55:33.116Z,0
2017-07-30T00:56:35.579Z,0
2017-07-30T00:57:38.043Z,0
2017-07-30T00:58:40.575Z,0
2017-07-30T00:59:43.086Z,0
2017-07-30T01:00:45.525Z,0
2017-07-30T01:01:47.958Z,0
2017-07-30T01:02:50.401Z,0
2017-07-30T01:03:52.912Z,0
2017-07-30T01:04:55.362Z,0
2017-07-30T01:05:57.807Z,0
2017-07-30T01:07:00.251Z,0
2017-07-30T01:08:02.694Z,0
2017-07-30T01:09:05.220Z,0
2017-07-30T01:10:07.687Z,0
2017-07-30T01:11:10.126Z,0
2017-07-30T01:12:12.574Z,0
2017-07-30T01:13:15.018Z,0
2017-07-30T01:14:17.527Z,0
2017-07-30T01:15:19.971Z,0
2017-07-30T01:16:22.403Z,0
2017-07-30T01:17:24.836Z,0
2017-07-30T01:18:27.289Z,0
2017-07-30T01:19:29.821Z,0
2017-07-30T01:20:32.263Z,0
2017-07-30T01:21:34.730Z,0
2017-07-30T01:22:37.166Z,0
2017-07-30T01:23:39.638Z,0
2017-07-30T01:24:42.153Z,0
2017-07-30T01:25:44.598Z,0
2017-07-30T01:26:47.040Z,0
2017-07-30T01:27:49.514Z,0
2017-07-30T01:28:51.964Z,0
2017-07-30T01:29:54.499Z,0
2017-07-30T01:30:56.933Z,0
2017-07-30T01:31:59.383Z,0
2017-07-30T01:33:01.844Z,0
2017-07-30T01:34:04.301Z,0
2017-07-30T01:35:06.828Z,0
2017-07-30T01:36:09.302Z,0
2017-07-30T01:37:11.741Z,0
2017-07-30T01:38:14.187Z,0
2017-07-30T01:39:16.647Z,0
2017-07-30T01:40:19.176Z,0
2017-07-30T01:41:21.648Z,0
2017-07-30T01:42:24.122Z,0
2017-07-30T01:43:26.561Z,0
2017-07-30T01:44:29.000Z,0
2017-07-30T01:45:31.517Z,0
2017-07-30T01:46:33.971Z,0
2017-07-30T01:47:36.466Z,0
2017-07-30T01:48:38.935Z,0
2017-07-30T01:49:41.377Z,0
2017-07-30T01:50:43.891Z,0
2017-07-30T01:51:46.352Z,0
2017-07-30T01:52:48.789Z,0
2017-07-30T01:53:51.257Z,0
2017-07-30T01:54:53.704Z,0
2017-07-30T01:55:56.231Z,0
2017-07-30T01:56:58.676Z,0
2017-07-30T01:58:01.115Z,0
2017-07-30T01:59:03.552Z,0
2017-07-30T02:00:05.994Z,0
2017-07-30T02:01:08.529Z,0
2017-07-30T02:02:10.973Z,0
2017-07-30T02:03:13.413Z,0
2017-07-30T02:04:15.857Z,0
2017-07-30T02:05:18.296Z,0
2017-07-30T02:06:20.819Z,0
2017-07-30T02:07:23.287Z,0
2017-07-30T02:08:25.756Z,0
2017-07-30T02:09:28.206Z,0
2017-07-30T02:10:30.637Z,0
2017-07-30T02:11:33.181Z,0
2017-07-30T02:12:35.617Z,0
2017-07-30T02:13:38.104Z,0
2017-07-30T02:14:40.538Z,0
2017-07-30T02:15:43.004Z,0
2017-07-30T02:16:45.512Z,0
2017-07-30T02:17:47.967Z,0
2017-07-30T02:18:50.417Z,0
2017-07-30T02:19:52.854Z,0
2017-07-30T02:20:55.296Z,0
2017-07-30T02:21:57.814Z,0
2017-07-30T02:23:00.289Z,0
2017-07-30T02:24:02.752Z,0
2017-07-30T02:25:05.205Z,0
2017-07-30T02:26:07.647Z,0
2017-07-30T02:27:10.161Z,0
2017-07-30T02:28:12.621Z,0
2017-07-30T02:29:15.068Z,0
2017-07-30T02:30:17.522Z,0
2017-07-30T02:31:19.996Z,0
2017-07-30T02:32:22.525Z,0
2017-07-30T02:33:25.653Z,0
2017-07-30T02:34:28.098Z,0
2017-07-30T02:35:30.550Z,0
2017-07-30T02:36:33.019Z,0
2017-07-30T02:37:35.559Z,0
2017-07-30T02:38:38.007Z,0
2017-07-30T02:39:40.454Z,0
2017-07-30T02:40:42.904Z,0
2017-07-30T02:41:45.340Z,0
2017-07-30T02:42:47.860Z,0
2017-07-30T02:43:50.307Z,0
2017-07-30T02:44:52.768Z,0
2017-07-30T02:45:55.202Z,0
2017-07-30T02:46:57.642Z,0
2017-07-30T02:48:00.204Z,0
2017-07-30T02:49:02.665Z,0
2017-07-30T02:50:05.100Z,0
2017-07-30T02:51:07.566Z,0
2017-07-30T02:52:10.007Z,0
2017-07-30T02:53:12.521Z,0
2017-07-30T02:54:14.968Z,0
2017-07-30T02:55:17.431Z,0
2017-07-30T02:56:19.993Z,0
2017-07-30T02:57:22.458Z,0
2017-07-30T02:58:25.002Z,0
2017-07-30T02:59:27.449Z,0
2017-07-30T03:00:29.891Z,0
2017-07-30T03:01:32.352Z,0
2017-07-30T03:02:34.802Z,0
2017-07-30T03:03:37.410Z,0
2017-07-30T03:04:39.884Z,0
2017-07-30T03:05:42.321Z,0
2017-07-30T03:06:44.782Z,0
2017-07-30T03:07:47.235Z,0
2017-07-30T03:08:49.777Z,0
2017-07-30T03:09:52.219Z,0
2017-07-30T03:10:54.675Z,0
2017-07-30T03:11:57.119Z,0
2017-07-30T03:12:59.568Z,0
2017-07-30T03:14:02.089Z,0
2017-07-30T03:15:04.552Z,0
2017-07-30T03:16:06.997Z,0
2017-07-30T03:17:09.444Z,0
2017-07-30T03:18:11.899Z,0
2017-07-30T03:19:14.404Z,0
2017-07-30T03:20:16.851Z,0
2017-07-30T03:21:19.281Z,0
2017-07-30T03:22:21.739Z,0
2017-07-30T03:23:24.183Z,0
2017-07-30T03:24:26.735Z,0
2017-07-30T03:25:29.182Z,0
2017-07-30T03:26:31.634Z,0
2017-07-30T03:27:34.104Z,0
2017-07-30T03:28:36.547Z,0
2017-07-30T03:29:39.066Z,0
2017-07-30T03:30:41.536Z,0
2017-07-30T03:31:43.985Z,0
2017-07-30T03:32:46.427Z,0
2017-07-30T03:33:48.874Z,0
2017-07-30T03:34:51.395Z,0
2017-07-30T03:35:53.844Z,0
2017-07-30T03:36:56.274Z,0
2017-07-30T03:37:58.721Z,0
2017-07-30T03:39:01.159Z,0
2017-07-30T03:40:03.679Z,0
2017-07-30T03:41:06.130Z,0
2017-07-30T03:42:08.589Z,0
2017-07-30T03:43:11.033Z,0
2017-07-30T03:44:13.481Z,0
2017-07-30T03:45:16.012Z,0
2017-07-30T03:46:18.478Z,0
2017-07-30T03:47:20.915Z,0
2017-07-30T03:48:23.352Z,0
2017-07-30T03:49:25.807Z,0
2017-07-30T03:50:28.316Z,0
2017-07-30T03:51:30.776Z,0
2017-07-30T03:52:33.218Z,0
2017-07-30T03:53:35.695Z,0
2017-07-30T03:54:38.172Z,0
2017-07-30T03:55:40.701Z,0
2017-07-30T03:56:43.156Z,0
2017-07-30T03:57:45.598Z,0
2017-07-30T03:58:48.051Z,0
2017-07-30T03:59:50.502Z,0
2017-07-30T04:00:53.015Z,0
2017-07-30T04:01:55.448Z,0
2017-07-30T04:02:57.904Z,5
2017-07-30T04:04:00.358Z,5
2017-07-30T04:05:02.805Z,5
2017-07-30T04:06:05.323Z,5
2017-07-30T04:07:07.760Z,5
2017-07-30T04:08:10.214Z,5
2017-07-30T04:09:12.659Z,5
2017-07-30T04:10:15.111Z,5
2017-07-30T04:11:17.618Z,5
2017-07-30T04:12:20.065Z,5
2017-07-30T04:13:22.502Z,5
2017-07-30T04:14:24.939Z,11
2017-07-30T04:15:27.474Z,11
2017-07-30T04:16:29.979Z,11
2017-07-30T04:17:32.440Z,11
2017-07-30T04:18:34.903Z,11
2017-07-30T04:19:37.356Z,11
2017-07-30T04:20:39.816Z,11
2017-07-30T04:21:42.343Z,11
2017-07-30T04:22:44.793Z,16
2017-07-30T04:23:47.249Z,16
2017-07-30T04:24:49.694Z,16
2017-07-30T04:25:52.132Z,16
2017-07-30T04:26:54.662Z,16
2017-07-30T04:27:57.141Z,16
2017-07-30T04:28:59.594Z,16
2017-07-30T04:30:02.074Z,16
2017-07-30T04:31:04.518Z,16
2017-07-30T04:32:07.032Z,22
2017-07-30T04:33:09.480Z,22
2017-07-30T04:34:11.945Z,22
2017-07-30T04:35:14.397Z,22
2017-07-30T04:36:16.842Z,22
2017-07-30T04:37:19.377Z,22
2017-07-30T04:38:21.821Z,22
2017-07-30T04:39:24.330Z,22
2017-07-30T04:40:27.702Z,28
2017-07-30T04:41:30.152Z,28
2017-07-30T04:42:32.661Z,28
2017-07-30T04:43:35.103Z,28
2017-07-30T04:44:37.564Z,28
2017-07-30T04:45:40.044Z,28
2017-07-30T04:46:42.485Z,28
2017-07-30T04:47:45.024Z,28
2017-07-30T04:48:47.493Z,28
2017-07-30T04:49:49.951Z,28
2017-07-30T04:50:52.409Z,28
2017-07-30T04:51:54.854Z,33
2017-07-30T04:52:57.362Z,33
2017-07-30T04:53:59.835Z,33
2017-07-30T04:55:02.275Z,33
2017-07-30T04:56:04.717Z,39
2017-07-30T04:57:07.170Z,39
2017-07-30T04:58:09.678Z,39
2017-07-30T04:59:12.142Z,39
2017-07-30T05:00:14.597Z,45
2017-07-30T05:01:17.057Z,45
2017-07-30T05:02:19.492Z,45
2017-07-30T05:03:22.023Z,45
2017-07-30T05:04:24.466Z,45
2017-07-30T05:05:26.929Z,45
2017-07-30T05:06:29.387Z,45
2017-07-30T05:07:31.842Z,50
2017-07-30T05:08:34.794Z,50
2017-07-30T05:09:37.242Z,50
2017-07-30T05:10:39.693Z,50
2017-07-30T05:11:42.167Z,50
2017-07-30T05:12:44.651Z,50
2017-07-30T05:13:47.286Z,50
2017-07-30T05:14:49.735Z,56
2017-07-30T05:15:52.203Z,56
2017-07-30T05:16:54.653Z,56
2017-07-30T05:17:57.119Z,56
2017-07-30T05:18:59.637Z,56
2017-07-30T05:20:02.707Z,56
2017-07-30T05:21:05.150Z,56
2017-07-30T05:22:07.613Z,56
2017-07-30T05:23:10.050Z,56
2017-07-30T05:24:12.804Z,56
2017-07-30T05:25:15.254Z,56
2017-07-30T05:26:17.702Z,61
2017-07-30T05:27:20.155Z,61
2017-07-30T05:28:22.594Z,61
2017-07-30T05:29:25.134Z,61
2017-07-30T05:30:27.572Z,67
2017-07-30T05:31:30.010Z,67
2017-07-30T05:32:32.457Z,67
2017-07-30T05:33:34.901Z,67
2017-07-30T05:34:37.403Z,67
2017-07-30T05:35:39.848Z,67
2017-07-30T05:36:42.290Z,67
2017-07-30T05:37:44.774Z,67
2017-07-30T05:38:47.233Z,73
2017-07-30T05:39:49.753Z,73
2017-07-30T05:40:52.214Z,73
2017-07-30T05:41:54.688Z,73
2017-07-30T05:42:57.128Z,73
2017-07-30T05:43:59.579Z,73
2017-07-30T05:45:02.091Z,73
2017-07-30T05:46:04.544Z,78
2017-07-30T05:47:06.993Z,78
2017-07-30T05:48:09.441Z,78
2017-07-30T05:49:11.902Z,78
2017-07-30T05:50:14.424Z,78
2017-07-30T05:51:16.970Z,78
2017-07-30T05:52:19.408Z,84
2017-07-30T05:53:21.848Z,84
2017-07-30T05:54:24.300Z,84
2017-07-30T05:55:27.670Z,84
2017-07-30T05:56:30.120Z,84
2017-07-30T05:57:32.575Z,84
2017-07-30T05:58:35.039Z,84
2017-07-30T05:59:37.481Z,90
2017-07-30T06:00:40.018Z,90
2017-07-30T06:01:42.471Z,90
2017-07-30T06:02:44.947Z,90
2017-07-30T06:03:47.394Z,90
2017-07-30T06:04:49.852Z,90
2017-07-30T06:05:52.363Z,90
2017-07-30T06:06:54.840Z,90
2017-07-30T06:07:57.304Z,90
2017-07-30T06:08:59.787Z,84
2017-07-30T06:10:02.251Z,84
2017-07-30T06:11:04.762Z,84
2017-07-30T06:12:07.213Z,84
2017-07-30T06:13:09.677Z,84
2017-07-30T06:14:12.128Z,84
2017-07-30T06:15:14.604Z,84
2017-07-30T06:16:17.108Z,84
2017-07-30T06:17:19.552Z,84
2017-07-30T06:18:22.032Z,84
2017-07-30T06:19:24.489Z,90
2017-07-30T06:20:26.931Z,90
2017-07-30T06:21:29.463Z,90
2017-07-30T06:22:31.924Z,95
2017-07-30T06:23:34.361Z,95
2017-07-30T06:24:36.809Z,95
2017-07-30T06:25:39.256Z,95
2017-07-30T06:26:41.791Z,95
2017-07-30T06:27:44.222Z,95
2017-07-30T06:28:46.672Z,95
2017-07-30T06:29:49.172Z,90
2017-07-30T06:30:51.710Z,90
2017-07-30T06:31:54.233Z,84
2017-07-30T06:32:56.697Z,84
2017-07-30T06:33:59.174Z,84
2017-07-30T06:35:01.640Z,84
2017-07-30T06:36:04.111Z,78
2017-07-30T06:37:06.627Z,78
2017-07-30T06:38:09.070Z,78
2017-07-30T06:39:11.546Z,84
2017-07-30T06:40:14.009Z,78
2017-07-30T06:41:16.470Z,84
2017-07-30T06:42:18.986Z,84
2017-07-30T06:43:21.431Z,84
2017-07-30T06:44:23.907Z,84
2017-07-30T06:45:26.367Z,90
2017-07-30T06:46:28.814Z,90
2017-07-30T06:47:31.318Z,95
2017-07-30T06:48:33.787Z,101
2017-07-30T06:49:36.244Z,106
2017-07-30T06:50:38.718Z,106
2017-07-30T06:51:41.166Z,112
2017-07-30T06:52:43.719Z,112
2017-07-30T06:53:46.171Z,106
2017-07-30T06:54:48.649Z,106
2017-07-30T06:55:51.109Z,112
2017-07-30T06:56:53.562Z,101
2017-07-30T06:57:56.073Z,101
2017-07-30T06:58:58.520Z,101
2017-07-30T07:00:00.959Z,101
2017-07-30T07:01:03.406Z,101
2017-07-30T07:02:05.873Z,101
2017-07-30T07:03:08.426Z,106
2017-07-30T07:04:10.897Z,101
2017-07-30T07:05:13.340Z,106
2017-07-30T07:06:15.797Z,106
2017-07-30T07:07:18.256Z,106
2017-07-30T07:08:20.772Z,106
2017-07-30T07:09:23.259Z,106
2017-07-30T07:10:25.722Z,101
2017-07-30T07:11:28.190Z,101
2017-07-30T07:12:30.641Z,95
2017-07-30T07:13:33.156Z,95
2017-07-30T07:14:35.611Z,95
2017-07-30T07:15:38.068Z,95
2017-07-30T07:16:40.528Z,95
2017-07-30T07:17:42.996Z,95
2017-07-30T07:18:45.515Z,95
2017-07-30T07:19:47.965Z,95
2017-07-30T07:20:50.414Z,95
2017-07-30T07:21:52.875Z,95
2017-07-30T07:22:55.338Z,95
2017-07-30T07:23:57.874Z,95
2017-07-30T07:25:00.334Z,101
2017-07-30T07:26:02.774Z,101
2017-07-30T07:27:05.231Z,101
2017-07-30T07:28:07.674Z,101
2017-07-30T07:29:10.269Z,101
2017-07-30T07:30:12.720Z,101
2017-07-30T07:31:15.163Z,101
2017-07-30T07:32:17.646Z,101
2017-07-30T07:33:20.104Z,101
2017-07-30T07:34:22.631Z,101
2017-07-30T07:35:25.081Z,101
2017-07-30T07:36:27.541Z,101
2017-07-30T07:37:30.014Z,101
2017-07-30T07:38:32.486Z,101
2017-07-30T07:39:35.005Z,101
2017-07-30T07:40:37.466Z,101
2017-07-30T07:41:39.931Z,101
2017-07-30T07:42:42.387Z,106
2017-07-30T07:43:44.843Z,106
2017-07-30T07:44:47.359Z,106
2017-07-30T07:45:49.836Z,106
2017-07-30T07:46:52.298Z,106
2017-07-30T07:47:54.759Z,106
2017-07-30T07:48:57.214Z,106
2017-07-30T07:49:59.783Z,106
2017-07-30T07:51:02.233Z,106
2017-07-30T07:52:04.696Z,112
2017-07-30T07:53:07.160Z,106
2017-07-30T07:54:09.613Z,106
2017-07-30T07:55:12.137Z,106
2017-07-30T07:56:14.597Z,106
2017-07-30T07:57:17.051Z,106
2017-07-30T07:58:19.505Z,112
2017-07-30T07:59:21.967Z,106
2017-07-30T08:00:24.528Z,118
2017-07-30T08:01:27.028Z,112
2017-07-30T08:02:29.512Z,112
2017-07-30T08:03:31.975Z,112
2017-07-30T08:04:34.433Z,112
2017-07-30T08:05:36.959Z,112
2017-07-30T08:06:39.423Z,112
2017-07-30T08:07:41.874Z,112
2017-07-30T08:08:44.328Z,112
2017-07-30T08:09:46.782Z,112
2017-07-30T08:10:49.318Z,112
2017-07-30T08:11:51.765Z,112
2017-07-30T08:12:54.224Z,112
2017-07-30T08:13:56.679Z,112
2017-07-30T08:14:59.129Z,112
2017-07-30T08:16:01.643Z,112
2017-07-30T08:17:04.083Z,112
2017-07-30T08:18:06.538Z,112
2017-07-30T08:19:08.996Z,112
2017-07-30T08:20:11.467Z,112
2017-07-30T08:21:14.001Z,112
2017-07-30T08:22:16.486Z,112
2017-07-30T08:23:18.981Z,112
2017-07-30T08:24:21.434Z,112
2017-07-30T08:25:23.967Z,112
2017-07-30T08:26:26.496Z,112
2017-07-30T08:27:28.956Z,112
2017-07-30T08:28:31.400Z,112
2017-07-30T08:29:33.904Z,112
2017-07-30T08:30:36.319Z,118
2017-07-30T08:31:38.859Z,118
2017-07-30T08:32:41.314Z,118
2017-07-30T08:33:43.780Z,118
2017-07-30T08:34:46.238Z,118
2017-07-30T08:35:48.698Z,118
2017-07-30T08:36:51.215Z,118
2017-07-30T08:37:53.675Z,118
2017-07-30T08:38:56.126Z,118
2017-07-30T08:39:58.605Z,118
2017-07-30T08:41:01.065Z,118
2017-07-30T08:42:03.585Z,123
2017-07-30T08:43:06.067Z,123
2017-07-30T08:44:08.548Z,123
2017-07-30T08:45:11.014Z,123
2017-07-30T08:46:13.464Z,123
2017-07-30T08:47:16.012Z,123
2017-07-30T08:48:18.484Z,123
2017-07-30T08:49:20.939Z,123
2017-07-30T08:50:23.412Z,123
2017-07-30T08:51:25.865Z,123
2017-07-30T08:52:28.421Z,123
2017-07-30T08:53:30.911Z,123
2017-07-30T08:54:33.382Z,123
2017-07-30T08:55:35.837Z,123
2017-07-30T08:56:38.316Z,123
2017-07-30T08:57:40.846Z,123
2017-07-30T08:58:43.314Z,129
2017-07-30T08:59:45.775Z,123
2017-07-30T09:00:48.225Z,129
2017-07-30T09:01:50.710Z,129
2017-07-30T09:02:53.269Z,135
2017-07-30T09:03:55.742Z,135
2017-07-30T09:04:58.216Z,135
2017-07-30T09:06:00.671Z,135
2017-07-30T09:07:03.142Z,140
2017-07-30T09:08:05.675Z,140
2017-07-30T09:09:08.129Z,146
2017-07-30T09:10:10.601Z,146
2017-07-30T09:11:13.061Z,151
2017-07-30T09:12:15.532Z,157
2017-07-30T09:13:18.067Z,157
2017-07-30T09:14:20.531Z,157
2017-07-30T09:15:22.992Z,157
2017-07-30T09:16:25.530Z,157
2017-07-30T09:17:27.979Z,157
2017-07-30T09:18:30.516Z,168
2017-07-30T09:19:32.975Z,168
2017-07-30T09:20:35.451Z,163
2017-07-30T09:21:37.935Z,168
2017-07-30T09:22:40.404Z,163
2017-07-30T09:23:42.965Z,168
2017-07-30T09:24:45.423Z,163
2017-07-30T09:25:47.878Z,163
2017-07-30T09:26:50.372Z,157
2017-07-30T09:27:52.834Z,157
2017-07-30T09:28:55.391Z,151
2017-07-30T09:29:57.848Z,146
2017-07-30T09:31:00.321Z,146
2017-07-30T09:32:02.799Z,140
2017-07-30T09:33:05.267Z,140
2017-07-30T09:34:07.807Z,140
2017-07-30T09:35:10.254Z,140
2017-07-30T09:36:12.718Z,140
2017-07-30T09:37:15.200Z,140
2017-07-30T09:38:17.677Z,146
2017-07-30T09:39:20.239Z,146
2017-07-30T09:40:22.698Z,146
2017-07-30T09:41:25.161Z,146
2017-07-30T09:42:27.625Z,146
2017-07-30T09:43:30.106Z,146
2017-07-30T09:44:32.657Z,151
2017-07-30T09:45:35.041Z,151
2017-07-30T09:46:37.506Z,151
2017-07-30T09:47:39.964Z,151
2017-07-30T09:48:42.422Z,151
2017-07-30T09:49:44.967Z,151
2017-07-30T09:50:47.455Z,151
2017-07-30T09:51:49.924Z,151
2017-07-30T09:52:52.381Z,157
2017-07-30T09:53:54.868Z,157
2017-07-30T09:54:57.408Z,157
2017-07-30T09:55:59.875Z,157
2017-07-30T09:57:02.331Z,157
2017-07-30T09:58:04.814Z,157
2017-07-30T09:59:07.288Z,157
2017-07-30T10:00:09.845Z,157
2017-07-30T10:01:12.318Z,157
2017-07-30T10:02:14.786Z,157
2017-07-30T10:03:17.239Z,163
2017-07-30T10:04:19.811Z,163
2017-07-30T10:05:22.361Z,163
2017-07-30T10:06:24.812Z,163
2017-07-30T10:07:27.273Z,163
2017-07-30T10:08:29.730Z,168
2017-07-30T10:09:32.234Z,168
2017-07-30T10:10:34.748Z,168
2017-07-30T10:11:37.202Z,168
2017-07-30T10:12:39.669Z,168
2017-07-30T10:13:42.126Z,174
2017-07-30T10:14:44.589Z,174
2017-07-30T10:15:47.120Z,174
2017-07-30T10:16:49.591Z,174
2017-07-30T10:17:52.055Z,174
2017-07-30T10:18:54.527Z,180
2017-07-30T10:19:56.998Z,180
2017-07-30T10:20:59.544Z,180
2017-07-30T10:22:02.010Z,180
2017-07-30T10:23:04.478Z,180
2017-07-30T10:24:06.958Z,185
2017-07-30T10:25:09.432Z,185
2017-07-30T10:26:11.942Z,185
2017-07-30T10:27:14.401Z,191
2017-07-30T10:28:16.856Z,191
2017-07-30T10:29:19.332Z,196
2017-07-30T10:30:21.806Z,196
2017-07-30T10:31:24.341Z,196
2017-07-30T10:32:26.826Z,202
2017-07-30T10:33:29.299Z,202
2017-07-30T10:34:31.762Z,208
2017-07-30T10:35:34.220Z,208
2017-07-30T10:36:36.752Z,208
2017-07-30T10:37:39.240Z,213
2017-07-30T10:38:41.718Z,213
2017-07-30T10:39:44.179Z,213
2017-07-30T10:40:46.634Z,219
2017-07-30T10:41:49.162Z,219
2017-07-30T10:42:51.630Z,225
2017-07-30T10:43:54.112Z,225
2017-07-30T10:44:56.564Z,230
2017-07-30T10:45:59.023Z,236
2017-07-30T10:47:01.562Z,236
2017-07-30T10:48:04.103Z,241
2017-07-30T10:49:06.587Z,241
2017-07-30T10:50:09.065Z,247
2017-07-30T10:51:11.551Z,253
2017-07-30T10:52:14.109Z,258
2017-07-30T10:53:16.543Z,258
2017-07-30T10:54:19.010Z,264
2017-07-30T10:55:21.472Z,270
2017-07-30T10:56:23.981Z,270
2017-07-30T10:57:26.509Z,275
2017-07-30T10:58:28.977Z,275
2017-07-30T10:59:31.435Z,275
2017-07-30T11:00:33.887Z,281
2017-07-30T11:01:36.361Z,281
2017-07-30T11:02:38.885Z,281
2017-07-30T11:03:41.356Z,281
2017-07-30T11:04:43.796Z,286
2017-07-30T11:05:46.264Z,286
2017-07-30T11:06:48.734Z,286
2017-07-30T11:07:51.291Z,292
2017-07-30T11:08:53.757Z,292
2017-07-30T11:09:56.239Z,298
2017-07-30T11:10:58.704Z,298
2017-07-30T11:12:01.187Z,303
2017-07-30T11:13:03.704Z,303
2017-07-30T11:14:06.164Z,309
2017-07-30T11:15:08.634Z,315
2017-07-30T11:16:11.112Z,320
2017-07-30T11:17:13.697Z,320
2017-07-30T11:18:16.229Z,320
2017-07-30T11:19:18.708Z,326
2017-07-30T11:20:21.172Z,331
2017-07-30T11:21:23.644Z,337
2017-07-30T11:22:26.122Z,348
2017-07-30T11:23:28.664Z,348
2017-07-30T11:24:31.122Z,360
2017-07-30T11:25:33.583Z,371
2017-07-30T11:26:36.052Z,388
2017-07-30T11:27:38.509Z,410
2017-07-30T11:28:41.026Z,444
2017-07-30T11:29:43.489Z,523
2017-07-30T11:30:45.976Z,1080
2017-07-30T11:31:48.447Z,2261
2017-07-30T11:32:50.916Z,2801
2017-07-30T11:33:53.446Z,2981
2017-07-30T11:34:55.901Z,3178
2017-07-30T11:35:58.398Z,3268
2017-07-30T11:37:00.888Z,3290
2017-07-30T11:38:03.356Z,3262
2017-07-30T11:39:05.884Z,3346
2017-07-30T11:40:08.333Z,3386
2017-07-30T11:41:10.816Z,3358
2017-07-30T11:42:13.268Z,3391
2017-07-30T11:43:15.729Z,3436
2017-07-30T11:44:18.274Z,3425
2017-07-30T11:45:20.744Z,3425
2017-07-30T11:46:23.198Z,3363
2017-07-30T11:47:25.680Z,3240
2017-07-30T11:48:28.254Z,3133
2017-07-30T11:49:30.802Z,3121
2017-07-30T11:50:33.305Z,3166
2017-07-30T11:51:35.777Z,3206
2017-07-30T11:52:38.250Z,3290
2017-07-30T11:53:40.706Z,3369
2017-07-30T11:54:43.262Z,3453
2017-07-30T11:55:45.733Z,3391
2017-07-30T11:56:48.185Z,3307
2017-07-30T11:57:50.641Z,3211
2017-07-30T11:58:53.108Z,3161
2017-07-30T11:59:55.663Z,3116
2017-07-30T12:00:58.150Z,3127
2017-07-30T12:02:00.611Z,3172
2017-07-30T12:03:03.188Z,3223
2017-07-30T12:04:05.728Z,3234
2017-07-30T12:05:08.305Z,3240
2017-07-30T12:06:10.778Z,3251
2017-07-30T12:07:13.242Z,3195
2017-07-30T12:08:15.706Z,3088
2017-07-30T12:09:18.169Z,2981
2017-07-30T12:10:20.736Z,2891
2017-07-30T12:11:23.273Z,2806
2017-07-30T12:12:25.734Z,2863
2017-07-30T12:13:28.435Z,3015
2017-07-30T12:14:30.893Z,3082
2017-07-30T12:15:33.439Z,3060
2017-07-30T12:16:35.944Z,2992
2017-07-30T12:17:38.405Z,2908
2017-07-30T12:18:40.853Z,2840
2017-07-30T12:19:43.318Z,2778
2017-07-30T12:20:45.879Z,2728
2017-07-30T12:21:48.348Z,2767
2017-07-30T12:22:50.809Z,2806
2017-07-30T12:23:53.274Z,2880
2017-07-30T12:24:55.738Z,2930
2017-07-30T12:25:58.281Z,2880
2017-07-30T12:27:00.771Z,2812
2017-07-30T12:28:03.231Z,2716
2017-07-30T12:29:05.697Z,2610
2017-07-30T12:30:08.155Z,2553
2017-07-30T12:31:10.698Z,2508
2017-07-30T12:32:13.159Z,2480
2017-07-30T12:33:15.645Z,2463
2017-07-30T12:34:18.117Z,2503
2017-07-30T12:35:20.577Z,2570
2017-07-30T12:36:23.115Z,2643
2017-07-30T12:37:25.591Z,2716
2017-07-30T12:38:28.074Z,2936
2017-07-30T12:39:30.526Z,3060
2017-07-30T12:40:32.992Z,3026
2017-07-30T12:41:35.506Z,2885
2017-07-30T12:42:37.977Z,2851
2017-07-30T12:43:40.451Z,2919
2017-07-30T12:44:42.906Z,2981
2017-07-30T12:45:45.364Z,2458
2017-07-30T12:46:47.886Z,2188
2017-07-30T12:47:50.495Z,894
2017-07-30T12:48:52.955Z,776
2017-07-30T12:49:55.427Z,781
2017-07-30T12:50:57.903Z,725
2017-07-30T12:52:00.440Z,945
2017-07-30T12:53:02.917Z,1170
2017-07-30T12:54:05.416Z,1186
2017-07-30T12:55:07.865Z,1108
2017-07-30T12:56:10.326Z,1316
2017-07-30T12:57:12.860Z,838
2017-07-30T12:58:15.315Z,1068
2017-07-30T12:59:17.787Z,1125
2017-07-30T13:00:20.256Z,1085
2017-07-30T13:01:22.732Z,1642
2017-07-30T13:02:25.251Z,1001
2017-07-30T13:03:27.719Z,860
2017-07-30T13:04:30.174Z,2356
2017-07-30T13:05:32.633Z,1490
2017-07-30T13:06:35.084Z,2165
2017-07-30T13:07:37.612Z,1991
2017-07-30T13:08:40.086Z,2013
2017-07-30T13:09:42.552Z,1771
2017-07-30T13:10:45.005Z,1923
2017-07-30T13:11:47.463Z,1963
2017-07-30T13:12:50.030Z,2036
2017-07-30T13:13:52.482Z,1940
2017-07-30T13:14:54.948Z,2182
2017-07-30T13:15:57.387Z,2300
2017-07-30T13:16:59.840Z,2334
2017-07-30T13:18:02.370Z,2469
2017-07-30T13:19:04.828Z,2199
2017-07-30T13:20:07.298Z,2109
2017-07-30T13:21:09.765Z,1085
2017-07-30T13:22:12.228Z,2317
2017-07-30T13:23:14.749Z,2356
2017-07-30T13:24:17.192Z,2368
2017-07-30T13:25:19.652Z,2446
2017-07-30T13:26:22.104Z,2503
2017-07-30T13:27:24.571Z,2401
2017-07-30T13:28:27.105Z,2289
2017-07-30T13:29:29.597Z,2199
2017-07-30T13:30:32.054Z,2199
2017-07-30T13:31:34.517Z,2233
2017-07-30T13:32:36.967Z,2041
2017-07-30T13:33:39.485Z,1726
2017-07-30T13:34:41.967Z,1665
2017-07-30T13:35:44.454Z,1693
2017-07-30T13:36:46.936Z,1850
2017-07-30T13:37:49.396Z,1175
2017-07-30T13:38:51.935Z,1141
2017-07-30T13:39:54.954Z,933
2017-07-30T13:40:57.423Z,753
2017-07-30T13:41:59.902Z,523
2017-07-30T13:43:02.367Z,500
2017-07-30T13:44:04.916Z,528
2017-07-30T13:45:07.374Z,585
2017-07-30T13:46:09.842Z,551
2017-07-30T13:47:12.301Z,500
2017-07-30T13:48:14.779Z,461
2017-07-30T13:49:17.322Z,433
2017-07-30T13:50:19.769Z,399
2017-07-30T13:51:22.264Z,433
2017-07-30T13:52:24.730Z,455
2017-07-30T13:53:27.193Z,405
2017-07-30T13:54:29.707Z,337
2017-07-30T13:55:32.844Z,315
2017-07-30T13:56:35.306Z,292
2017-07-30T13:57:37.773Z,303
2017-07-30T13:58:40.248Z,365
2017-07-30T13:59:42.776Z,450
2017-07-30T14:00:45.242Z,556
2017-07-30T14:01:47.748Z,579
2017-07-30T14:02:50.254Z,551
2017-07-30T14:03:52.703Z,489
2017-07-30T14:04:55.244Z,455
2017-07-30T14:05:57.708Z,421
2017-07-30T14:07:00.152Z,455
2017-07-30T14:08:02.605Z,579
2017-07-30T14:09:05.081Z,641
2017-07-30T14:10:07.603Z,613
2017-07-30T14:11:10.082Z,596
2017-07-30T14:12:13.487Z,624
2017-07-30T14:13:15.967Z,720
2017-07-30T14:14:18.442Z,579
2017-07-30T14:15:20.969Z,691
2017-07-30T14:16:23.423Z,579
2017-07-30T14:17:25.879Z,495
2017-07-30T14:18:28.347Z,405
2017-07-30T14:19:30.800Z,365
2017-07-30T14:20:33.364Z,343
2017-07-30T14:21:35.835Z,331
2017-07-30T14:22:38.281Z,337
2017-07-30T14:23:40.733Z,354
2017-07-30T14:24:43.206Z,382
2017-07-30T14:25:45.747Z,399
2017-07-30T14:26:48.218Z,393
2017-07-30T14:27:50.681Z,393
2017-07-30T14:28:53.136Z,405
2017-07-30T14:29:55.589Z,421
2017-07-30T14:30:58.123Z,478
2017-07-30T14:32:00.593Z,528
2017-07-30T14:33:03.048Z,427
2017-07-30T14:34:05.501Z,455
2017-07-30T14:35:07.977Z,427
2017-07-30T14:36:10.547Z,393
2017-07-30T14:37:12.935Z,421
2017-07-30T14:38:15.402Z,590
2017-07-30T14:39:17.849Z,601